createdAt,value
2018-07-14T00:01:08.292Z,35.10
2018-07-14T00:03:11.400Z,16.03
2018-07-14T00:05:14.507Z,32.13
2018-07-14T00:07:17.596Z,23.43
2018-07-14T00:09:20.715Z,23.00
2018-07-14T00:11:23.830Z,17.30
2018-07-14T00:13:26.951Z,28.73
2018-07-14T00:15:29.819Z,31.40
2018-07-14T00:17:32.771Z,26.80
2018-07-14T00:19:35.897Z,24.00
2018-07-14T00:21:39.020Z,25.80
2018-07-14T00:23:42.133Z,25.70
2018-07-14T00:25:50.752Z,22.33
2018-07-14T00:27:53.972Z,21.43
2018-07-14T00:29:57.060Z,23.20
2018-07-14T00:32:00.192Z,21.13
2018-07-14T00:34:03.307Z,33.93
2018-07-14T00:36:06.432Z,31.70
2018-07-14T00:38:09.570Z,28.60
2018-07-14T00:40:12.672Z,31.80
2018-07-14T00:42:15.824Z,28.43
2018-07-14T00:44:18.959Z,23.70
2018-07-14T00:46:22.085Z,35.70
2018-07-14T00:48:25.212Z,30.50
2018-07-14T00:50:28.332Z,22.13
2018-07-14T00:52:31.551Z,35.53
2018-07-14T00:54:34.682Z,23.70
2018-07-14T00:56:38.496Z,24.97
2018-07-14T00:58:41.622Z,31.13
2018-07-14T01:00:44.742Z,25.30
2018-07-14T01:02:47.864Z,30.20
2018-07-14T01:04:51.019Z,29.53
2018-07-14T01:06:54.123Z,23.77
2018-07-14T01:08:57.244Z,27.70
2018-07-14T01:11:00.390Z,31.23
2018-07-14T01:13:03.540Z,29.63
2018-07-14T01:15:06.636Z,34.00
2018-07-14T01:17:09.515Z,23.87
2018-07-14T01:19:12.528Z,43.57
2018-07-14T01:21:15.651Z,27.93
2018-07-14T01:23:18.898Z,33.10
2018-07-14T01:25:22.016Z,24.57
2018-07-14T01:27:25.123Z,30.10
2018-07-14T01:29:28.264Z,34.40
2018-07-14T01:31:31.480Z,27.40
2018-07-14T01:33:34.615Z,35.97
2018-07-14T01:35:37.732Z,30.30
2018-07-14T01:37:40.856Z,29.13
2018-07-14T01:39:44.063Z,33.87
2018-07-14T01:41:46.948Z,34.00
2018-07-14T01:43:50.057Z,30.97
2018-07-14T01:45:53.160Z,32.30
2018-07-14T01:47:56.261Z,35.23
2018-07-14T01:49:59.371Z,28.33
2018-07-14T01:52:02.480Z,28.77
2018-07-14T01:54:05.644Z,28.07
2018-07-14T01:56:08.800Z,34.13
2018-07-14T01:58:11.942Z,32.30
2018-07-14T02:00:15.060Z,33.80
2018-07-14T02:02:18.221Z,32.23
2018-07-14T02:04:21.365Z,29.80
2018-07-14T02:06:24.471Z,32.90
2018-07-14T02:08:27.596Z,39.47
2018-07-14T02:10:30.712Z,36.87
2018-07-14T02:12:33.852Z,39.47
2018-07-14T02:14:36.996Z,35.63
2018-07-14T02:16:40.164Z,42.23
2018-07-14T02:18:43.277Z,28.03
2018-07-14T02:20:46.409Z,29.37
2018-07-14T02:22:49.515Z,31.93
2018-07-14T02:24:52.645Z,31.07
2018-07-14T02:26:55.768Z,34.27
2018-07-14T02:28:58.884Z,36.87
2018-07-14T02:31:02.033Z,37.33
2018-07-14T02:33:05.184Z,38.50
2018-07-14T02:35:08.326Z,35.90
2018-07-14T02:37:11.432Z,35.33
2018-07-14T02:39:14.562Z,43.30
2018-07-14T02:41:17.681Z,35.70
2018-07-14T02:43:20.811Z,33.87
2018-07-14T02:45:23.925Z,46.77
2018-07-14T02:47:27.028Z,46.27
2018-07-14T02:49:30.139Z,40.50
2018-07-14T02:51:33.353Z,40.33
2018-07-14T02:53:36.524Z,40.37
2018-07-14T02:55:39.684Z,37.83
2018-07-14T02:57:42.818Z,34.27
2018-07-14T02:59:46.024Z,39.13
2018-07-14T03:01:49.049Z,52.30
2018-07-14T03:03:52.186Z,40.20
2018-07-14T03:05:55.288Z,38.40
2018-07-14T03:07:58.408Z,44.00
2018-07-14T03:10:01.521Z,36.90
2018-07-14T03:12:04.628Z,35.13
2018-07-14T03:14:07.740Z,41.20
2018-07-14T03:16:10.867Z,40.70
2018-07-14T03:18:13.972Z,45.07
2018-07-14T03:20:17.074Z,42.50
2018-07-14T03:22:20.183Z,41.90
2018-07-14T03:24:23.288Z,43.47
2018-07-14T03:26:26.507Z,37.77
2018-07-14T03:28:29.621Z,37.97
2018-07-14T03:30:32.780Z,46.60
2018-07-14T03:32:36.408Z,39.80
2018-07-14T03:34:39.508Z,44.60
2018-07-14T03:36:42.673Z,35.03
2018-07-14T03:38:45.752Z,41.93
2018-07-14T03:40:48.851Z,51.13
2018-07-14T03:42:51.981Z,41.77
2018-07-14T03:44:55.089Z,43.20
2018-07-14T03:46:58.207Z,37.80
2018-07-14T03:49:01.320Z,32.90
2018-07-14T03:51:04.432Z,49.53
2018-07-14T03:53:07.532Z,52.93
2018-07-14T03:55:10.632Z,39.77
2018-07-14T03:57:13.748Z,41.07
2018-07-14T03:59:16.856Z,36.77
2018-07-14T04:01:20.024Z,33.07
2018-07-14T04:03:23.140Z,43.90
2018-07-14T04:05:26.265Z,36.57
2018-07-14T04:07:29.399Z,33.63
2018-07-14T04:09:32.680Z,35.30
2018-07-14T04:11:35.815Z,29.07
2018-07-14T04:13:38.948Z,36.07
2018-07-14T04:15:42.148Z,30.53
2018-07-14T04:17:48.175Z,41.20
2018-07-14T04:19:51.390Z,38.80
2018-07-14T04:21:54.508Z,40.73
2018-07-14T04:23:57.633Z,38.27
2018-07-14T04:26:00.785Z,39.97
2018-07-14T04:28:04.699Z,32.00
2018-07-14T04:30:07.821Z,27.70
2018-07-14T04:32:10.924Z,29.23
2018-07-14T04:34:14.044Z,29.73
2018-07-14T04:36:17.164Z,27.37
2018-07-14T04:38:20.338Z,30.40
2018-07-14T04:40:23.506Z,32.40
2018-07-14T04:42:26.632Z,34.27
2018-07-14T04:44:29.792Z,22.40
2018-07-14T04:46:32.872Z,32.30
2018-07-14T04:48:36.021Z,27.13
2018-07-14T04:50:40.054Z,24.50
2018-07-14T04:52:43.204Z,35.13
2018-07-14T04:54:46.504Z,27.33
2018-07-14T04:56:49.637Z,24.50
2018-07-14T04:58:52.749Z,23.83
2018-07-14T05:00:55.871Z,25.40
2018-07-14T05:03:03.431Z,28.10
2018-07-14T05:05:06.567Z,22.80
2018-07-14T05:07:09.457Z,27.33
2018-07-14T05:09:12.345Z,19.60
2018-07-14T05:11:15.406Z,16.83
2018-07-14T05:13:18.313Z,20.00
2018-07-14T05:15:21.232Z,15.97
2018-07-14T05:17:24.147Z,15.40
2018-07-14T05:19:27.052Z,16.33
2018-07-14T05:21:30.214Z,19.43
2018-07-14T05:23:33.012Z,12.97
2018-07-14T05:25:36.164Z,13.70
2018-07-14T05:27:39.061Z,12.67
2018-07-14T05:29:41.952Z,14.40
2018-07-14T05:31:44.885Z,14.30
2018-07-14T05:33:48.011Z,12.30
2018-07-14T05:35:51.150Z,12.57
2018-07-14T05:37:54.272Z,8.00
2018-07-14T05:39:57.211Z,10.70
2018-07-14T05:42:00.365Z,11.60
2018-07-14T05:44:03.503Z,10.27
2018-07-14T05:46:06.623Z,9.60
2018-07-14T05:48:09.743Z,10.30
2018-07-14T05:50:12.876Z,16.23
2018-07-14T05:52:15.989Z,10.20
2018-07-14T05:54:19.116Z,13.53
2018-07-14T05:56:22.347Z,9.20
2018-07-14T05:58:25.389Z,9.97
2018-07-14T06:00:28.674Z,14.50
2018-07-14T06:02:31.800Z,10.30
2018-07-14T06:04:34.928Z,11.07
2018-07-14T06:06:38.097Z,11.30
2018-07-14T06:08:41.200Z,9.03
2018-07-14T06:10:44.315Z,16.10
2018-07-14T06:12:47.493Z,11.60
2018-07-14T06:14:50.589Z,15.07
2018-07-14T06:16:53.728Z,13.23
2018-07-14T06:18:56.845Z,12.40
2018-07-14T06:20:59.976Z,16.70
2018-07-14T06:23:03.084Z,18.83
2018-07-14T06:25:06.512Z,11.37
2018-07-14T06:27:09.662Z,9.67
2018-07-14T06:29:12.785Z,10.30
2018-07-14T06:31:15.920Z,8.10
2018-07-14T06:33:19.020Z,11.27
2018-07-14T06:35:22.152Z,8.03
2018-07-14T06:37:25.273Z,11.47
2018-07-14T06:39:28.151Z,20.00
2018-07-14T06:41:31.091Z,8.23
2018-07-14T06:43:34.274Z,7.70
2018-07-14T06:45:37.426Z,13.93
2018-07-14T06:47:40.555Z,8.80
2018-07-14T06:49:43.852Z,7.57
2018-07-14T06:51:46.934Z,8.20
2018-07-14T06:53:50.091Z,7.90
2018-07-14T06:55:53.216Z,11.10
2018-07-14T06:57:56.376Z,7.17
2018-07-14T06:59:59.478Z,10.23
2018-07-14T07:02:02.600Z,7.70
2018-07-14T07:04:05.556Z,11.17
2018-07-14T07:06:08.753Z,9.07
2018-07-14T07:08:11.870Z,12.73
2018-07-14T07:10:14.985Z,8.90
2018-07-14T07:12:18.094Z,11.00
2018-07-14T07:14:21.207Z,8.27
2018-07-14T07:16:24.308Z,14.77
2018-07-14T07:18:27.426Z,11.97
2018-07-14T07:20:30.539Z,10.43
2018-07-14T07:22:33.665Z,16.13
2018-07-14T07:24:36.780Z,12.93
2018-07-14T07:26:39.988Z,13.63
2018-07-14T07:28:43.247Z,12.80
2018-07-14T07:30:46.168Z,16.87
2018-07-14T07:32:49.316Z,25.93
2018-07-14T07:34:52.469Z,37.73
2018-07-14T07:36:56.131Z,17.50
2018-07-14T07:38:59.691Z,15.03
2018-07-14T07:41:03.906Z,14.37
2018-07-14T07:43:07.489Z,17.40
2018-07-14T07:45:10.636Z,11.97
2018-07-14T07:47:13.736Z,12.53
2018-07-14T07:49:16.838Z,11.30
2018-07-14T07:51:19.944Z,8.60
2018-07-14T07:53:23.049Z,12.53
2018-07-14T07:55:26.152Z,13.27
2018-07-14T07:57:29.239Z,15.77
2018-07-14T07:59:32.329Z,15.17
2018-07-14T08:01:35.403Z,10.33
2018-07-14T08:03:38.500Z,11.53
2018-07-14T08:05:41.606Z,14.80
2018-07-14T08:07:45.215Z,14.50
2018-07-14T08:09:48.328Z,16.20
2018-07-14T08:11:51.785Z,9.17
2018-07-14T08:13:54.892Z,10.90
2018-07-14T08:15:58.014Z,16.27
2018-07-14T08:18:01.083Z,10.80
2018-07-14T08:20:04.427Z,11.43
2018-07-14T08:22:07.767Z,18.47
2018-07-14T08:24:10.901Z,12.03
2018-07-14T08:26:14.040Z,16.73
2018-07-14T08:28:17.217Z,11.87
2018-07-14T08:30:20.325Z,14.10
2018-07-14T08:32:23.483Z,11.00
2018-07-14T08:34:26.514Z,12.53
2018-07-14T08:36:29.605Z,11.57
2018-07-14T08:38:32.700Z,10.77
2018-07-14T08:40:35.815Z,13.83
2018-07-14T08:42:39.215Z,11.10
2018-07-14T08:44:42.295Z,14.00
2018-07-14T08:46:45.471Z,10.40
2018-07-14T08:48:48.619Z,11.57
2018-07-14T08:50:51.844Z,12.73
2018-07-14T08:52:55.047Z,23.70
2018-07-14T08:54:58.216Z,9.47
2018-07-14T08:57:01.752Z,10.20
2018-07-14T08:59:04.994Z,10.93
2018-07-14T09:01:08.663Z,20.43
2018-07-14T09:03:11.924Z,8.40
2018-07-14T09:05:15.044Z,12.00
2018-07-14T09:07:18.180Z,18.23
2018-07-14T09:09:21.315Z,9.50
2018-07-14T09:11:24.440Z,9.43
2018-07-14T09:13:27.544Z,12.43
2018-07-14T09:15:30.652Z,13.43
2018-07-14T09:17:33.799Z,10.50
2018-07-14T09:19:36.910Z,14.50
2018-07-14T09:21:40.012Z,8.30
2018-07-14T09:23:43.216Z,8.43
2018-07-14T09:25:46.668Z,22.73
2018-07-14T09:27:49.786Z,11.63
2018-07-14T09:29:52.879Z,13.70
2018-07-14T09:31:55.816Z,17.97
2018-07-14T09:33:58.960Z,11.90
2018-07-14T09:36:01.893Z,12.50
2018-07-14T09:38:05.027Z,11.70
2018-07-14T09:40:08.200Z,11.87
2018-07-14T09:42:13.048Z,11.67
2018-07-14T09:44:16.307Z,10.63
2018-07-14T09:46:19.422Z,11.00
2018-07-14T09:48:22.524Z,10.37
2018-07-14T09:50:25.644Z,12.90
2018-07-14T09:52:28.780Z,17.63
2018-07-14T09:54:31.917Z,8.47
2018-07-14T09:56:35.040Z,12.77
2018-07-14T09:58:38.229Z,10.27
2018-07-14T10:00:46.660Z,14.17
2018-07-14T10:02:49.767Z,16.37
2018-07-14T10:04:52.920Z,14.17
2018-07-14T10:06:56.000Z,9.80
2018-07-14T10:08:59.106Z,8.67
2018-07-14T10:11:02.280Z,10.30
2018-07-14T10:13:05.432Z,11.70
2018-07-14T10:15:08.805Z,14.43
2018-07-14T10:17:11.949Z,9.17
2018-07-14T10:19:15.046Z,14.90
2018-07-14T10:21:18.160Z,8.97
2018-07-14T10:23:21.284Z,20.83
2018-07-14T10:25:26.817Z,16.47
2018-07-14T10:27:30.380Z,12.20
2018-07-14T10:29:33.559Z,17.63
2018-07-14T10:31:36.736Z,11.30
2018-07-14T10:33:39.926Z,11.63
2018-07-14T10:35:43.081Z,22.00
2018-07-14T10:37:46.409Z,7.70
2018-07-14T10:39:49.562Z,17.00
2018-07-14T10:41:52.691Z,23.03
2018-07-14T10:43:55.798Z,10.70
2018-07-14T10:45:58.727Z,13.83
2018-07-14T10:48:02.043Z,19.73
2018-07-14T10:50:05.744Z,14.07
2018-07-14T10:52:09.123Z,19.37
2018-07-14T10:54:12.277Z,15.50
2018-07-14T10:56:15.416Z,18.93
2018-07-14T10:58:18.525Z,24.00
2018-07-14T11:00:21.784Z,17.63
2018-07-14T11:02:24.905Z,16.07
2018-07-14T11:04:28.024Z,23.43
2018-07-14T11:06:31.145Z,12.47
2018-07-14T11:08:34.246Z,14.93
2018-07-14T11:10:37.208Z,17.53
2018-07-14T11:12:40.345Z,13.50
2018-07-14T11:14:43.481Z,21.30
2018-07-14T11:16:46.584Z,16.67
2018-07-14T11:18:49.560Z,13.70
2018-07-14T11:20:52.673Z,12.90
2018-07-14T11:22:55.808Z,11.30
2018-07-14T11:24:58.901Z,12.63
2018-07-14T11:27:02.045Z,12.20
2018-07-14T11:29:05.132Z,11.23
2018-07-14T11:31:08.237Z,10.30
2018-07-14T11:33:11.340Z,11.50
2018-07-14T11:35:14.440Z,16.20
2018-07-14T11:37:17.573Z,16.10
2018-07-14T11:39:20.692Z,12.13
2018-07-14T11:41:23.807Z,10.53
2018-07-14T11:43:26.937Z,13.53
2018-07-14T11:45:30.092Z,9.90
2018-07-14T11:47:33.054Z,11.00
2018-07-14T11:49:36.091Z,14.37
2018-07-14T11:51:39.212Z,10.70
2018-07-14T11:53:42.347Z,10.00
2018-07-14T11:55:45.452Z,8.57
2018-07-14T11:57:49.932Z,9.73
2018-07-14T11:59:53.040Z,26.23
2018-07-14T12:01:56.154Z,19.73
2018-07-14T12:03:59.288Z,11.53
2018-07-14T12:06:02.391Z,12.20
2018-07-14T12:08:05.632Z,13.40
2018-07-14T12:10:08.761Z,8.30
2018-07-14T12:12:11.940Z,10.27
2018-07-14T12:14:15.057Z,13.70
2018-07-14T12:16:18.280Z,14.33
2018-07-14T12:18:21.395Z,11.83
2018-07-14T12:20:24.520Z,8.80
2018-07-14T12:22:27.677Z,13.30
2018-07-14T12:24:30.763Z,10.57
2018-07-14T12:26:34.312Z,10.10
2018-07-14T12:28:37.695Z,11.00
2018-07-14T12:30:41.144Z,7.10
2018-07-14T12:32:44.319Z,8.77
2018-07-14T12:34:47.491Z,7.97
2018-07-14T12:36:50.459Z,8.73
2018-07-14T12:38:53.643Z,6.97
2018-07-14T12:40:56.760Z,8.10
2018-07-14T12:43:00.031Z,8.83
2018-07-14T12:45:03.209Z,10.27
2018-07-14T12:47:06.376Z,9.67
2018-07-14T12:49:09.603Z,14.13
2018-07-14T12:56:03.608Z,10.10
2018-07-14T12:58:06.500Z,4.50
2018-07-14T13:00:09.686Z,8.10
2018-07-14T13:02:12.777Z,8.00
2018-07-14T13:04:15.884Z,6.87
2018-07-14T13:06:19.003Z,9.67
2018-07-14T13:08:22.117Z,13.53
2018-07-14T13:10:25.243Z,6.40
2018-07-14T13:12:28.343Z,9.23
2018-07-14T13:14:31.431Z,5.47
2018-07-14T13:16:34.937Z,4.30
2018-07-14T13:18:38.090Z,5.67
2018-07-14T13:20:41.175Z,8.43
2018-07-14T13:22:44.568Z,5.37
2018-07-14T13:24:47.747Z,17.77
2018-07-14T13:26:51.964Z,3.63
2018-07-14T13:28:55.148Z,5.90
2018-07-14T13:30:58.252Z,5.80
2018-07-14T13:33:01.380Z,4.50
2018-07-14T13:35:04.493Z,10.13
2018-07-14T13:37:07.704Z,6.30
2018-07-14T13:39:10.883Z,11.33
2018-07-14T13:41:13.918Z,9.40
2018-07-14T13:43:17.030Z,7.53
2018-07-14T13:45:20.156Z,6.40
2018-07-14T13:47:24.352Z,6.40
2018-07-14T13:49:27.548Z,8.70
2018-07-14T13:51:30.810Z,6.20
2018-07-14T13:53:33.996Z,3.83
2018-07-14T13:55:37.079Z,6.03
2018-07-14T13:57:40.312Z,3.00
2018-07-14T13:59:43.403Z,7.67
2018-07-14T14:01:46.499Z,4.03
2018-07-14T14:03:49.476Z,5.23
2018-07-14T14:05:52.567Z,4.83
2018-07-14T14:07:55.462Z,5.23
2018-07-14T14:09:58.540Z,3.10
2018-07-14T14:12:01.664Z,3.97
2018-07-14T14:14:05.088Z,10.27
2018-07-14T14:16:08.369Z,4.97
2018-07-14T14:18:11.572Z,3.40
2018-07-14T14:20:14.678Z,6.20
2018-07-14T14:22:17.691Z,5.67
2018-07-14T14:24:21.258Z,7.90
2018-07-14T14:26:24.342Z,2.57
2018-07-14T14:28:27.436Z,6.37
2018-07-14T14:30:30.538Z,7.37
2018-07-14T14:32:33.644Z,8.30
2018-07-14T14:34:36.728Z,5.63
2018-07-14T14:36:39.604Z,6.33
2018-07-14T14:38:42.927Z,4.43
2018-07-14T14:40:46.023Z,7.33
2018-07-14T14:42:49.155Z,31.57
2018-07-14T14:44:52.251Z,14.43
2018-07-14T14:46:55.383Z,10.87
2018-07-14T14:48:58.496Z,10.17
2018-07-14T14:51:01.594Z,3.87
2018-07-14T14:53:04.720Z,6.40
2018-07-14T14:55:07.823Z,8.30
2018-07-14T14:57:10.940Z,2.80
2018-07-14T14:59:14.094Z,4.00
2018-07-14T15:01:17.169Z,4.67
2018-07-14T15:03:20.328Z,6.53
2018-07-14T15:05:23.639Z,4.00
2018-07-14T15:07:26.769Z,5.23
2018-07-14T15:09:29.884Z,3.53
2018-07-14T15:11:33.008Z,3.10
2018-07-14T15:13:36.291Z,7.20
2018-07-14T15:15:39.407Z,2.43
2018-07-14T15:17:42.351Z,3.10
2018-07-14T15:19:45.455Z,2.77
2018-07-14T15:21:48.595Z,4.63
2018-07-14T15:23:51.709Z,4.30
2018-07-14T15:25:54.936Z,5.47
2018-07-14T15:27:57.968Z,4.20
2018-07-14T15:30:01.136Z,2.77
2018-07-14T15:32:04.523Z,3.30
2018-07-14T15:34:07.824Z,2.70
2018-07-14T15:36:10.962Z,7.00
2018-07-14T15:38:14.039Z,6.00
2018-07-14T15:40:17.185Z,2.53
2018-07-14T15:42:20.296Z,6.73
2018-07-14T15:44:23.643Z,2.87
2018-07-14T15:46:33.748Z,2.20
2018-07-14T15:48:36.866Z,5.53
2018-07-14T15:50:41.284Z,2.37
2018-07-14T15:52:44.620Z,4.57
2018-07-14T15:54:47.721Z,2.13
2018-07-14T15:56:53.104Z,7.30
2018-07-14T15:58:56.237Z,7.67
2018-07-14T16:00:59.359Z,7.60
2018-07-14T16:03:02.511Z,2.73
2018-07-14T16:05:05.955Z,4.73
2018-07-14T16:07:09.056Z,6.73
2018-07-14T16:09:13.047Z,6.07
2018-07-14T16:11:16.155Z,10.93
2018-07-14T16:13:19.323Z,5.23
2018-07-14T16:15:22.415Z,6.30
2018-07-14T16:17:25.605Z,9.37
2018-07-14T16:19:28.699Z,9.60
2018-07-14T16:21:31.807Z,8.97
2018-07-14T16:23:34.928Z,2.10
2018-07-14T16:25:38.067Z,3.70
2018-07-14T16:27:41.174Z,11.70
2018-07-14T16:29:44.272Z,3.27
2018-07-14T16:31:47.419Z,1.90
2018-07-14T16:33:50.515Z,3.00
2018-07-14T16:35:53.620Z,8.87
2018-07-14T16:37:56.711Z,7.83
2018-07-14T16:39:59.805Z,2.50
2018-07-14T16:42:02.924Z,4.00
2018-07-14T16:44:06.036Z,2.43
2018-07-14T16:46:09.182Z,4.53
2018-07-14T16:48:12.272Z,6.60
2018-07-14T16:50:15.405Z,8.77
2018-07-14T16:52:18.564Z,7.90
2018-07-14T16:54:21.730Z,8.57
2018-07-14T16:56:24.848Z,4.60
2018-07-14T16:58:28.102Z,15.83
2018-07-14T17:00:31.207Z,8.17
2018-07-14T17:02:35.268Z,5.30
2018-07-14T17:04:38.396Z,4.60
2018-07-14T17:06:41.520Z,3.70
2018-07-14T17:08:44.649Z,2.60
2018-07-14T17:10:47.772Z,2.97
2018-07-14T17:12:50.921Z,2.70
2018-07-14T17:14:54.039Z,1.60
2018-07-14T17:16:57.155Z,2.23
2018-07-14T17:19:00.287Z,3.60
2018-07-14T17:21:03.424Z,2.10
2018-07-14T17:23:06.549Z,1.50
2018-07-14T17:25:09.672Z,2.53
2018-07-14T17:27:12.850Z,2.40
2018-07-14T17:29:15.912Z,1.60
2018-07-14T17:31:19.036Z,3.90
2018-07-14T17:33:22.156Z,3.77
2018-07-14T17:35:25.283Z,1.53
2018-07-14T17:37:28.403Z,2.03
2018-07-14T17:39:31.537Z,1.50
2018-07-14T17:41:34.756Z,3.47
2018-07-14T17:43:37.741Z,3.30
2018-07-14T17:45:40.872Z,4.93
2018-07-14T17:47:43.944Z,2.50
2018-07-14T17:49:46.906Z,2.90
2018-07-14T17:51:50.055Z,2.93
2018-07-14T17:53:52.955Z,3.47
2018-07-14T17:55:56.096Z,1.77
2018-07-14T17:57:59.049Z,7.17
2018-07-14T18:00:02.018Z,4.20
2018-07-14T18:02:05.015Z,7.20
2018-07-14T18:04:07.908Z,1.97
2018-07-14T18:06:10.807Z,3.23
2018-07-14T18:08:13.720Z,8.83
2018-07-14T18:10:16.663Z,2.37
2018-07-14T18:12:19.566Z,2.23
2018-07-14T18:14:22.696Z,5.07
2018-07-14T18:16:25.856Z,7.90
2018-07-14T18:18:28.948Z,1.80
2018-07-14T18:20:32.067Z,2.17
2018-07-14T18:22:35.171Z,2.20
2018-07-14T18:24:38.527Z,1.90
2018-07-14T18:26:41.647Z,1.50
2018-07-14T18:28:44.580Z,1.73
2018-07-14T18:30:47.692Z,2.47
2018-07-14T18:32:50.812Z,2.00
2018-07-14T18:34:53.939Z,1.67
2018-07-14T18:36:57.079Z,1.67
2018-07-14T18:39:00.207Z,5.20
2018-07-14T18:41:03.340Z,3.43
2018-07-14T18:43:06.451Z,3.53
2018-07-14T18:45:09.359Z,7.70
2018-07-14T18:47:12.504Z,3.23
2018-07-14T18:49:15.620Z,1.67
2018-07-14T18:51:18.872Z,3.60
2018-07-14T18:53:21.999Z,2.37
2018-07-14T18:55:25.141Z,1.97
2018-07-14T18:57:28.500Z,2.30
2018-07-14T18:59:31.636Z,2.97
2018-07-14T19:01:34.856Z,2.50
2018-07-14T19:03:37.979Z,1.07
2018-07-14T19:05:40.899Z,1.23
2018-07-14T19:07:44.124Z,1.10
2018-07-14T19:09:47.247Z,1.40
2018-07-14T19:11:51.386Z,1.70
2018-07-14T19:13:54.555Z,1.73
2018-07-14T19:15:57.669Z,1.63
2018-07-14T19:18:00.787Z,1.50
2018-07-14T19:20:03.929Z,2.87
2018-07-14T19:22:07.100Z,1.60
2018-07-14T19:24:10.268Z,1.40
2018-07-14T19:26:13.487Z,2.47
2018-07-14T19:28:16.512Z,4.73
2018-07-14T19:30:19.682Z,3.07
2018-07-14T19:32:22.582Z,4.60
2018-07-14T19:34:25.705Z,4.60
2018-07-14T19:36:28.931Z,7.33
2018-07-14T19:38:32.047Z,2.47
2018-07-14T19:40:35.208Z,3.20
2018-07-14T19:42:38.355Z,4.27
2018-07-14T19:44:41.775Z,3.03
2018-07-14T19:46:44.900Z,1.70
2018-07-14T19:48:48.028Z,1.50
2018-07-14T19:50:51.144Z,2.07
2018-07-14T19:52:54.290Z,2.23
2018-07-14T19:54:57.406Z,3.63
2018-07-14T19:57:00.525Z,3.00
2018-07-14T19:59:03.819Z,8.47
2018-07-14T20:01:06.879Z,2.87
2018-07-14T20:03:09.979Z,1.57
2018-07-14T20:05:13.128Z,1.63
2018-07-14T20:07:17.088Z,1.50
2018-07-14T20:09:20.198Z,1.83
2018-07-14T20:11:23.296Z,8.53
2018-07-14T20:13:26.495Z,10.33
2018-07-14T20:15:29.595Z,2.50
2018-07-14T20:17:32.756Z,20.93
2018-07-14T20:19:35.878Z,3.90
2018-07-14T20:21:38.981Z,5.70
2018-07-14T20:23:42.104Z,5.13
2018-07-14T20:25:45.196Z,2.50
2018-07-14T20:27:48.380Z,1.50
2018-07-14T20:29:51.490Z,20.00
2018-07-14T20:31:54.600Z,5.30
2018-07-14T20:33:57.871Z,2.60
2018-07-14T20:36:00.948Z,1.93
2018-07-14T20:38:04.071Z,1.70
2018-07-14T20:40:07.185Z,1.77
2018-07-14T20:42:10.295Z,1.47
2018-07-14T20:44:13.422Z,2.20
2018-07-14T20:46:16.563Z,1.43
2018-07-14T20:48:19.851Z,5.60
2018-07-14T20:50:22.964Z,5.37
2018-07-14T20:52:26.152Z,1.50
2018-07-14T20:54:29.188Z,2.70
2018-07-14T20:56:32.300Z,2.87
2018-07-14T20:58:35.391Z,5.87
2018-07-14T21:00:38.511Z,8.00
2018-07-14T21:02:41.612Z,2.93
2018-07-14T21:04:44.711Z,3.90
2018-07-14T21:06:47.832Z,1.97
2018-07-14T21:08:50.914Z,3.40
2018-07-14T21:10:54.787Z,2.13
2018-07-14T21:12:57.920Z,2.93
2018-07-14T21:15:01.205Z,1.70
2018-07-14T21:17:04.301Z,3.47
2018-07-14T21:19:07.429Z,3.13
2018-07-14T21:21:10.537Z,5.40
2018-07-14T21:23:14.328Z,1.60
2018-07-14T21:25:17.433Z,3.20
2018-07-14T21:27:20.551Z,1.50
2018-07-14T21:29:23.656Z,1.97
2018-07-14T21:31:26.763Z,2.47
2018-07-14T21:33:30.057Z,5.90
2018-07-14T21:35:33.179Z,2.17
2018-07-14T21:37:36.313Z,2.57
2018-07-14T21:39:39.420Z,2.70
2018-07-14T21:41:42.576Z,5.83
2018-07-14T21:43:45.661Z,2.40
2018-07-14T21:45:48.777Z,2.57
2018-07-14T21:47:52.004Z,5.90
2018-07-14T21:49:55.123Z,2.60
2018-07-14T21:51:58.323Z,3.13
2018-07-14T21:54:01.404Z,3.03
2018-07-14T21:56:04.500Z,5.43
2018-07-14T21:58:07.649Z,8.00
2018-07-14T22:00:20.800Z,32.07
2018-07-14T22:02:24.401Z,28.47
2018-07-14T22:04:27.555Z,22.60
2018-07-14T22:06:30.686Z,32.90
2018-07-14T22:08:33.814Z,14.40
2018-07-14T22:10:36.959Z,21.30
2018-07-14T22:12:40.188Z,20.03
2018-07-14T22:14:43.328Z,19.23
2018-07-14T22:16:46.510Z,14.33
2018-07-14T22:18:49.635Z,15.77
2018-07-14T22:20:52.771Z,11.80
2018-07-14T22:22:55.912Z,10.33
2018-07-14T22:24:59.043Z,9.90
2018-07-14T22:27:02.180Z,17.83
2018-07-14T22:29:05.351Z,20.50
2018-07-14T22:31:08.526Z,7.73
2018-07-14T22:33:11.664Z,7.90
2018-07-14T22:35:14.768Z,5.23
2018-07-14T22:37:17.902Z,6.43
2018-07-14T22:39:21.031Z,3.90
2018-07-14T22:41:24.161Z,9.03
2018-07-14T22:43:27.344Z,7.17
2018-07-14T22:45:30.487Z,11.40
2018-07-14T22:47:33.757Z,12.17
2018-07-14T22:49:36.904Z,5.07
2018-07-14T22:51:40.102Z,4.33
2018-07-14T22:53:43.269Z,10.73
2018-07-14T22:55:46.407Z,10.50
2018-07-14T22:57:49.522Z,4.90
2018-07-14T22:59:52.632Z,13.47
2018-07-14T23:01:55.832Z,17.03
2018-07-14T23:03:58.997Z,10.90
2018-07-14T23:06:02.247Z,10.73
2018-07-14T23:08:05.412Z,11.57
2018-07-14T23:10:08.582Z,13.30
2018-07-14T23:12:11.660Z,6.00
2018-07-14T23:14:14.835Z,8.33
2018-07-14T23:16:17.976Z,4.93
2018-07-14T23:18:21.100Z,4.90
2018-07-14T23:20:24.319Z,9.93
2018-07-14T23:22:28.124Z,10.40
2018-07-14T23:24:31.405Z,7.07
2018-07-14T23:26:34.500Z,4.90
2018-07-14T23:28:37.623Z,5.60
2018-07-14T23:30:40.719Z,4.23
2018-07-14T23:32:43.853Z,5.87
2018-07-14T23:34:47.141Z,4.80
2018-07-14T23:36:50.229Z,6.73
2018-07-14T23:38:53.333Z,4.13
2018-07-14T23:40:56.427Z,14.80
2018-07-14T23:42:59.569Z,18.13
2018-07-14T23:45:02.672Z,10.53
2018-07-14T23:47:05.785Z,5.50
2018-07-14T23:49:08.918Z,3.70
2018-07-14T23:51:12.137Z,5.70
2018-07-14T23:53:15.232Z,5.97
2018-07-14T23:55:18.356Z,3.80
2018-07-14T23:57:21.465Z,9.73
2018-07-14T23:59:24.648Z,4.33
